Milton, PA (17847)

11:21 PM EDT del 03 Agosto 2015 (GMT -0400)
Windsor at Lewisburg | | Change Station
CLOSE
Current Station
Stazione meteo personale
Location: Lewisburg, PA
Altitudine: 545 ft
Stazioni meteo nelle vicinanze

Alt. 545 ft 40.94 °N, 76.89 °W | Updated 5 seconds ago

Parzialmente nuvoloso
Parzialmente nuvoloso
74.1 °F
Sembra 77 °F
N
0.0
Vento Variabile Vento da Sud
Gusts 0.0 mph

Oggi
Massima -- | Minima -- °F
--% Possibilità di precip.
Ieri
Massima -- | Minima -- °F
Precip. -- in
6:05 AM 8:21 PM
Gobba a levante, 81% visible
Pressione 29.81 in
Visibilità 10.0 miglia
Nuvole Nubi sparse 11000 ft
Indice di calore 77 °F
Punto di rugiada 57 °F
Umidità 55%
Piovosità -999.00 in
Spessore del manto nevoso Non disponibile.
Raggi UV 0 fuori da 12
Polline 7.00 fuori da 12
Qualità dell'aria Non disponibile.
Flu Activity Non disponibile.
METAR KSEG 040253Z AUTO 00000KT 10SM SCT110 20/19 A2982 RMK AO2 SLP093 T02000189 53009

More Conditions Fewer Conditions

Pressione 29.81 in
Visibilità 10.0 miglia
Nuvole Nubi sparse 11000 ft
Indice di calore 77 °F
Punto di rugiada 57 °F
Umidità 55%
Piovosità -999.00 in
Spessore del manto nevoso Non disponibile.
Raggi UV 0 fuori da 12
Polline 7.00 fuori da 12
Qualità dell'aria Non disponibile.
Flu Activity Non disponibile.
METAR KSEG 040253Z AUTO 00000KT 10SM SCT110 20/19 A2982 RMK AO2 SLP093 T02000189 53009

More Conditions Fewer Conditions

10-Day Weather Forecast

×

Almanac

Astronomia

Aug. 03, 2015 Alba Tramonto
Ora attuale
Crepuscolo civile
Crepuscolo nautico
Crepuscolo astronomico
Luna
Estensione della luce visibile
Lunghezza del giorno
Tomorrow will be .
, % of the Moon is Illuminated

Gli estremi di oggi

State Highs State Lows

Community

WunderPhotos

Upload Photos

1,843,838 foto caricate!

WunderBlogs® & News

Nearby

Qualità dell'aria

  Qualità dell'aria Indice AQ Inquinante
Not available.

Profondità neve

Stazione Profondità Altitudine

Attività sismica

Città  Distanza Mag. Data & Ora
Minimo Magnitudo Mostrato è 2.5.

Temperature delle acque costiere

Località Temperatura

Stations

Stazioni meteo nelle vicinanze

Ubicazione della stazione Temp. Raffreddamento del vento Punto di rugiada Umidità Vento Precip. Alt. Aggiornato Tipo